Latest Weather Observations for Tocal

IDN60801

Issued at 6:02 pm EST Thursday 21 June 2018 (issued every 10 minutes, with the page automatically refreshed every 10 minutes)

About weather observations | Map of weather stations | Latest weather observations for NSW | Other Formats
Station Details ID: 061250 Name: TOCAL AWS Lat: -32.63 Lon: 151.59 Height: 30.0 m
Data from the previous 72 hours. | See also: Recent months at Tocal
Date/Time
EST
Temp
°C
App
Temp
°C
Dew
Point
°C
Rel
Hum
%
Delta-T
°C
Wind Press
QNH
hPa
Press
MSL
hPa
Rain since
9am
mm
Dir  Spd
km/h
Gust
km/h
Spd
kts
Gust
kts
21/06:00pm 12.5 13.0 11.7 95 0.4 CALM 0 0 0 0 - - 0.0
21/05:30pm 13.1 12.8 11.4 89 0.9 W 4 7 2 4 - - 0.0
21/05:00pm 14.3 14.8 11.5 83 1.5 CALM 0 0 0 0 - - 0.0
21/04:30pm 14.8 15.4 12.0 83 1.5 CALM 0 0 0 0 - - 0.0
21/04:00pm 15.2 15.7 11.7 79 1.9 CALM 0 0 0 0 - - 0.0
21/03:30pm 15.7 16.3 12.0 78 2.0 CALM 0 0 0 0 - - 0.0
21/03:00pm 15.5 15.9 11.4 76 2.2 CALM 0 6 0 3 - - 0.0
21/02:30pm 15.2 14.5 11.5 78 2.0 N 6 7 3 4 - - 0.0
21/02:00pm 15.6 15.3 11.3 75 2.3 WNW 4 7 2 4 - - 0.0
21/01:30pm 15.7 14.9 11.6 76 2.2 N 7 13 4 7 - - 0.0
21/01:00pm 15.7 14.9 11.6 76 2.2 N 7 11 4 6 - - 0.0
21/12:30pm 14.8 14.8 11.2 79 1.9 ENE 2 7 1 4 - - 0.0
21/12:00pm 13.7 12.8 11.4 86 1.2 NNE 7 7 4 4 - - 0.0
21/11:30am 13.8 12.6 11.6 86 1.2 ENE 9 11 5 6 - - 0.0
21/11:00am 13.7 12.9 11.6 87 1.1 NE 7 9 4 5 - - 0.0
21/10:30am 13.5 12.4 10.8 84 1.4 N 7 9 4 5 - - 0.0
21/10:00am 13.4 11.9 10.7 84 1.4 N 9 11 5 6 - - 0.0
21/09:30am 13.0 11.5 10.7 86 1.2 W 9 13 5 7 - - 0.0
21/09:00am 12.1 11.2 11.3 95 0.4 NW 7 9 4 5 - - 0.6
21/08:30am 11.7 10.3 10.9 95 0.4 NE 9 9 5 5 - - 0.6
21/08:00am 11.5 10.7 11.1 97 0.2 ENE 6 7 3 4 - - 0.6
21/07:30am 11.4 11.7 11.0 97 0.2 CALM 0 0 0 0 - - 0.6
21/07:00am 11.2 11.5 11.0 99 0.1 CALM 0 0 0 0 - - 0.6
21/06:30am 11.2 10.1 10.8 97 0.2 ENE 7 7 4 4 - - 0.6
21/06:00am 11.2 10.2 11.0 99 0.1 NNE 7 7 4 4 - - 0.6
21/05:30am 11.2 9.8 10.8 97 0.2 NE 9 9 5 5 - - 0.6
21/05:00am 11.1 10.1 10.9 99 0.1 ENE 7 9 4 5 - - 0.6
21/04:30am 11.1 10.1 10.9 99 0.1 NE 7 9 4 5 - - 0.6
21/04:00am 11.2 9.8 10.8 97 0.2 N 9 9 5 5 - - 0.6
21/03:30am 11.0 11.0 11.0 100 0.0 NNE 2 7 1 4 - - 0.6
21/03:00am 11.0 11.3 11.0 100 0.0 CALM 0 0 0 0 - - 0.6
21/02:30am 10.7 10.9 10.7 100 0.0 CALM 0 0 0 0 - - 0.6
21/02:00am 10.8 9.9 10.8 100 0.0 NE 6 7 3 4 - - 0.6
21/01:30am 10.6 9.5 10.6 100 0.0 NE 7 7 4 4 - - 0.6
21/01:00am 10.5 9.6 10.5 100 0.0 E 6 9 3 5 - - 0.6
21/12:30am 10.8 11.1 10.8 100 0.0 CALM 0 0 0 0 - - 0.6
21/12:00am 11.0 11.3 10.8 99 0.1 CALM 0 6 0 3 - - 0.6
 
Date/Time
EST
Temp
°C
App
Temp
°C
Dew
Point
°C
Rel
Hum
%
Delta-T
°C
Wind Press
QNH
hPa
Press
MSL
hPa
Rain since
9am
mm
Dir  Spd
km/h
Gust
km/h
Spd
kts
Gust
kts
20/11:30pm 11.3 11.6 10.9 97 0.2 CALM 0 7 0 4 - - 0.6
20/11:00pm 11.4 11.7 11.0 97 0.2 CALM 0 0 0 0 - - 0.4
20/10:30pm 11.4 10.5 11.2 99 0.1 NNW 7 9 4 5 - - 0.4
20/10:00pm 11.4 10.4 11.0 97 0.2 NNW 7 9 4 5 - - 0.4
20/09:30pm 12.0 12.3 11.0 94 0.5 CALM 0 0 0 0 - - 0.4
20/09:00pm 12.3 12.6 10.8 90 0.8 CALM 0 0 0 0 - - 0.0
20/08:30pm 11.5 10.6 10.7 95 0.4 W 6 7 3 4 - - 0.0
20/08:00pm 11.6 11.7 10.2 91 0.7 CALM 0 0 0 0 - - 0.0
20/07:30pm 11.5 10.5 10.3 92 0.6 NW 6 7 3 4 - - 0.0
20/07:00pm 11.8 10.7 10.6 92 0.6 NNW 7 9 4 5 - - 0.0
20/06:30pm 12.0 11.1 10.7 92 0.7 NW 6 7 3 4 - - 0.0
20/06:00pm 12.8 11.9 10.7 87 1.1 NNW 6 9 3 5 - - 0.0
20/05:30pm 13.8 13.9 10.3 79 1.8 CALM 0 0 0 0 - - 0.0
20/05:00pm 14.9 15.1 10.5 75 2.3 CALM 0 0 0 0 - - 0.0
20/04:30pm 15.7 14.4 10.0 69 3.0 SW 7 9 4 5 - - 0.0
20/04:00pm 16.2 14.3 9.2 63 3.6 S 9 15 5 8 - - 0.0
20/03:30pm 16.8 15.0 9.3 61 3.9 S 9 15 5 8 - - 0.0
20/03:00pm 17.0 14.3 8.9 59 4.2 S 13 26 7 14 - - 0.0
20/02:30pm 17.1 14.6 8.1 55 4.6 S 11 17 6 9 - - 0.0
20/02:00pm 16.8 14.6 9.3 61 3.9 S 11 19 6 10 - - 0.0
20/01:30pm 16.0 14.2 10.9 72 2.7 S 11 17 6 9 - - 0.0
20/01:00pm 17.9 15.2 9.1 56 4.6 S 13 24 7 13 - - 0.0
20/12:30pm 17.8 15.8 10.3 61 4.0 SSE 11 22 6 12 - - 0.0
20/12:00pm 17.2 13.8 10.4 64 3.6 S 19 19 10 10 - - 0.0
20/11:30am 16.4 14.5 10.6 68 3.1 SSE 11 22 6 12 - - 0.0
20/11:00am 16.4 15.1 11.2 71 2.8 WSW 9 13 5 7 - - 0.0
20/10:30am 15.4 13.5 10.5 72 2.6 SW 11 13 6 7 - - 0.0
20/10:00am 15.1 13.2 10.6 74 2.4 SW 11 15 6 8 - - 0.0
20/09:30am 14.5 13.0 10.5 77 2.1 W 9 13 5 7 - - 0.0
20/09:00am 13.9 13.4 10.7 81 1.7 N 4 7 2 4 - - 37.4
20/08:30am 11.6 10.5 10.6 94 0.5 NNW 7 9 4 5 - - 37.4
20/08:00am 11.6 11.9 10.8 95 0.4 CALM 0 0 0 0 - - 37.4
20/07:30am 10.9 11.0 10.3 96 0.3 CALM 0 7 0 4 - - 37.4
20/07:00am 10.8 10.1 10.2 96 0.3 W 4 7 2 4 - - 37.4
20/06:30am 10.9 10.2 10.1 95 0.4 S 4 9 2 5 - - 37.4
20/06:00am 10.7 10.7 9.9 95 0.4 CALM 0 4 0 2 - - 37.4
20/05:30am 10.5 8.8 9.9 96 0.3 WSW 9 15 5 8 - - 37.4
20/05:00am 11.0 10.0 10.2 95 0.4 WSW 6 9 3 5 - - 37.4
20/04:30am 10.9 9.3 10.3 96 0.3 W 9 13 5 7 - - 37.4
20/04:00am 10.5 9.5 10.3 99 0.1 WNW 6 9 3 5 - - 37.4
20/03:30am 10.6 9.7 10.6 100 0.0 NW 6 9 3 5 - - 37.4
20/03:00am 10.8 9.9 10.6 99 0.1 NW 6 9 3 5 - - 36.4
20/02:30am 10.8 9.6 10.4 97 0.2 NNW 7 11 4 6 - - 34.8
20/02:00am 10.8 9.9 10.6 99 0.1 WSW 6 7 3 4 - - 34.4
20/01:30am 10.8 9.6 10.4 97 0.2 N 7 9 4 5 - - 34.0
20/01:00am 11.0 9.5 10.4 96 0.3 W 9 15 5 8 - - 32.6
20/12:30am 11.0 10.4 10.4 96 0.3 NW 4 9 2 5 - - 32.0
20/12:00am 11.0 9.0 10.2 95 0.4 WSW 11 15 6 8 - - 31.4
 
Date/Time
EST
Temp
°C
App
Temp
°C
Dew
Point
°C
Rel
Hum
%
Delta-T
°C
Wind Press
QNH
hPa
Press
MSL
hPa
Rain since
9am
mm
Dir  Spd
km/h
Gust
km/h
Spd
kts
Gust
kts
19/11:30pm 10.7 9.6 10.1 96 0.3 W 6 9 3 5 - - 31.4
19/11:00pm 10.3 8.9 9.7 96 0.3 W 7 13 4 7 - - 31.2
19/10:30pm 10.8 - 10.2 96 0.3 - - - - - - - 31.2
19/10:00pm 10.8 - 10.2 96 0.3 - - - - - - - 30.4
19/09:30pm 10.9 8.9 10.3 96 0.3 WSW 11 19 6 10 - - 30.2
19/09:00pm 10.9 8.6 10.3 96 0.3 W 13 17 7 9 - - 29.8
19/08:30pm 10.7 8.7 10.1 96 0.3 W 11 15 6 8 - - 29.4
19/08:00pm 10.8 9.6 10.4 97 0.2 SSW 7 9 4 5 - - 28.4
19/07:30pm 11.0 9.1 10.4 96 0.3 ENE 11 15 6 8 - - 26.2
19/07:00pm 11.0 8.3 10.2 95 0.4 W 15 24 8 13 - - 24.8
19/06:30pm 11.1 8.4 10.3 95 0.4 WSW 15 26 8 14 - - 24.8
19/06:00pm 11.0 8.3 10.2 95 0.4 W 15 26 8 14 - - 23.6
19/05:30pm 10.5 8.9 10.3 99 0.1 W 9 15 5 8 - - 23.0
19/05:00pm 10.3 9.0 10.1 99 0.1 NNW 7 9 4 5 - - 22.4
19/04:30pm 10.3 10.4 10.1 99 0.1 CALM 0 0 0 0 - - 20.8
19/04:00pm 10.4 10.0 9.8 96 0.3 W 2 7 1 4 - - 19.6
19/03:30pm 11.1 9.2 10.5 96 0.3 ESE 11 19 6 10 - - 18.0
19/03:00pm 11.3 11.1 10.3 94 0.5 WSW 2 7 1 4 - - 17.4
19/02:30pm 11.8 10.0 10.8 94 0.5 WSW 11 15 6 8 - - 15.8
19/02:00pm 11.4 10.5 10.8 96 0.3 WNW 6 9 3 5 - - 15.8
19/01:30pm 11.7 10.2 10.5 92 0.6 S 9 15 5 8 - - 12.2
19/01:00pm 12.2 9.9 10.5 89 0.9 W 13 22 7 12 - - 10.4
19/12:30pm 12.1 8.3 9.9 86 1.1 W 20 30 11 16 - - 9.8
19/12:00pm 10.9 8.8 9.7 92 0.6 W 11 17 6 9 - - 9.8
19/11:30am 10.0 8.2 9.4 96 0.3 W 9 15 5 8 - - 9.8
19/11:00am 9.5 7.2 9.1 97 0.2 W 11 17 6 9 - - 9.2
19/10:30am 9.4 7.5 9.2 99 0.1 W 9 13 5 7 - - 6.2
19/10:00am 9.5 8.1 8.9 96 0.3 WNW 6 9 3 5 - - 3.0
19/09:30am 9.6 8.1 9.0 96 0.3 NW 7 11 4 6 - - 0.2
19/09:00am 9.3 7.3 8.7 96 0.3 W 9 15 5 8 - - 5.6
19/08:30am 9.5 6.5 7.8 89 0.8 ESE 13 17 7 9 - - 3.2
19/08:00am 9.2 6.2 7.5 89 0.8 W 13 20 7 11 - - 3.0
19/07:30am 9.0 6.0 7.5 90 0.7 W 13 20 7 11 - - 3.0
19/07:00am 9.2 5.7 7.1 87 1.0 WSW 15 26 8 14 - - 2.6
19/06:30am 9.7 5.9 6.0 78 1.7 W 15 24 8 13 - - 1.6
19/06:00am 10.1 5.7 5.0 70 2.3 W 17 28 9 15 - - 0.8
19/05:30am 11.2 6.5 2.9 56 3.6 W 17 30 9 16 - - 0.6
19/05:00am 11.1 6.0 2.8 56 3.6 W 19 32 10 17 - - 0.6
19/04:30am 11.0 6.6 2.7 56 3.6 W 15 22 8 12 - - 0.6
19/04:00am 10.8 6.4 2.7 57 3.5 W 15 28 8 15 - - 0.6
19/03:30am 10.8 6.1 3.0 58 3.4 W 17 30 9 16 - - 0.6
19/03:00am 11.3 6.2 3.1 57 3.6 W 19 28 10 15 - - 0.6
19/02:30am 11.2 6.6 3.8 60 3.3 WSW 17 28 9 15 - - 0.6
19/02:00am 11.0 7.2 3.8 61 3.2 W 13 17 7 9 - - 0.6
19/01:30am 11.0 6.4 3.8 61 3.2 W 17 24 9 13 - - 0.6
19/01:00am 11.0 6.5 4.3 63 3.0 WSW 17 28 9 15 - - 0.6
19/12:30am 10.9 7.7 5.2 68 2.6 WSW 11 15 6 8 - - 0.6
19/12:00am 11.4 7.5 5.3 66 2.8 WSW 15 22 8 12 - - 0.6
 
Date/Time
EST
Temp
°C
App
Temp
°C
Dew
Point
°C
Rel
Hum
%
Delta-T
°C
Wind Press
QNH
hPa
Press
MSL
hPa
Rain since
9am
mm
Dir  Spd
km/h
Gust
km/h
Spd
kts
Gust
kts
18/11:30pm 12.0 7.2 4.8 61 3.3 WSW 19 26 10 14 - - 0.6
18/11:00pm 12.2 7.8 4.8 60 3.4 W 17 24 9 13 - - 0.6
18/10:30pm 12.2 8.1 6.0 66 2.9 WSW 17 26 9 14 - - 0.6
18/10:00pm 11.4 9.4 7.2 75 2.0 W 7 11 4 6 - - 0.6
18/09:30pm 12.0 9.2 7.0 71 2.4 SSW 11 15 6 8 - - 0.6
18/09:00pm 12.1 9.3 7.1 71 2.4 SW 11 17 6 9 - - 0.6
18/08:30pm 12.1 10.1 7.3 72 2.3 SW 7 11 4 6 - - 0.6
18/08:00pm 12.3 9.2 7.1 70 2.5 SSW 13 26 7 14 - - 0.6
18/07:30pm 12.2 9.5 7.2 71 2.4 SSW 11 19 6 10 - - 0.6
18/07:00pm 10.7 9.1 8.2 84 1.2 SE 6 9 3 5 - - 0.6
18/06:30pm 10.2 9.1 8.6 90 0.8 W 4 9 2 5 - - 0.6

Other Formats:

Comma delimited format used in spreadsheet applications
http://www.bom.gov.au/fwo/IDN60801/IDN60801.94775.axf

JavaScript Object Notation format (JSON) in row-major order
http://www.bom.gov.au/fwo/IDN60801/IDN60801.94775.json